Time;durP1;ratioP1;P1;durP2;ratioP2;P2;SDS_P1;SDS_P2;PMS_P1;PMS_P2;Temp;Humidity;BMP_temperature;BMP_pressure;BME280_temperature;BME280_humidity;BME280_pressure;Samples;Min_cycle;Max_cycle;Signal;HPM_P1;HPM_P2
2022/10/30 00:00:24;;;;;;;;;17.67;14.67;;;;;20.30;53.37;101165.91;5026148;28;45000;-63
2022/10/30 00:02:50;;;;;;;;;19.00;14.33;;;;;20.18;53.53;101150.63;5027304;28;45132;-63
2022/10/30 00:05:16;;;;;;;;;25.33;21.00;;;;;20.17;53.47;101147.00;5025935;28;44871;-63
2022/10/30 00:07:41;;;;;;;;;19.00;16.33;;;;;20.28;53.18;101175.84;5018978;28;45710;-64
2022/10/30 00:10:08;;;;;;;;;19.67;14.67;;;;;20.28;53.29;101175.84;5032440;28;44981;-61
2022/10/30 00:12:33;;;;;;;;;24.33;19.00;;;;;20.14;53.85;101155.16;5023370;28;45108;-62
2022/10/30 00:14:59;;;;;;;;;20.67;19.67;;;;;20.18;53.63;101166.91;5024075;28;45215;-62
2022/10/30 00:17:24;;;;;;;;;21.33;14.67;;;;;20.17;53.32;101159.66;5028315;28;49048;-61
2022/10/30 00:19:49;;;;;;;;;18.00;15.67;;;;;20.18;53.55;101158.75;5022856;28;45072;-62
2022/10/30 00:22:15;;;;;;;;;20.00;14.33;;;;;19.75;53.78;101084.00;5022173;28;45101;-61
2022/10/30 00:24:40;;;;;;;;;10.00;10.00;;;;;20.20;54.02;101159.66;5024470;28;45149;-62
2022/10/30 00:27:05;;;;;;;;;20.33;15.67;;;;;20.14;53.48;101157.84;5024188;28;47116;-63
2022/10/30 00:29:31;;;;;;;;;17.67;14.33;;;;;20.15;53.51;101166.91;5041319;28;45095;-62
2022/10/30 00:31:56;;;;;;;;;17.00;9.67;;;;;20.12;53.81;101161.50;5030999;28;45054;-65
2022/10/30 00:34:22;;;;;;;;;17.00;13.67;;;;;20.15;53.93;101159.69;5028583;28;45781;-62
2022/10/30 00:36:47;;;;;;;;;21.00;17.67;;;;;20.10;54.13;101155.19;5030289;28;46180;-61
2022/10/30 00:39:13;;;;;;;;;21.00;18.67;;;;;19.99;53.89;101144.41;5029710;28;45142;-61
2022/10/30 00:41:40;;;;;;;;;28.67;23.67;;;;;20.16;53.86;101168.69;5024962;28;47233;-62
2022/10/30 00:44:33;;;;;;;;;19.33;13.67;;;;;20.20;53.78;101167.78;5028446;28;45498;-67
2022/10/30 00:47:04;;;;;;;;;22.67;17.33;;;;;20.15;54.10;101159.69;5039897;28;47256;-62
2022/10/30 00:49:36;;;;;;;;;14.00;12.33;;;;;19.98;53.99;101129.03;5021790;28;45372;-62
2022/10/30 00:52:04;;;;;;;;;13.00;12.67;;;;;20.16;54.17;101185.91;5023125;28;45533;-63
2022/10/30 00:54:31;;;;;;;;;19.00;12.33;;;;;19.98;54.70;101165.22;5031120;28;45218;-62
2022/10/30 00:57:00;;;;;;;;;15.33;15.00;;;;;19.97;55.12;101176.97;5031710;28;47644;-63
2022/10/30 00:59:29;;;;;;;;;17.33;15.67;;;;;19.96;55.39;101186.00;5034133;28;45120;-63
2022/10/30 01:01:56;;;;;;;;;18.00;14.33;;;;;19.88;55.63;101175.22;5018603;28;45056;-62
2022/10/30 01:04:22;;;;;;;;;16.67;16.33;;;;;19.78;55.78;101175.25;5029846;28;45101;-62
2022/10/30 01:06:51;;;;;;;;;21.33;18.33;;;;;19.73;56.32;101180.66;5034072;28;45853;-62
2022/10/30 01:09:18;;;;;;;;;28.33;22.33;;;;;19.74;56.53;101192.41;5029767;28;45115;-63
2022/10/30 01:11:44;;;;;;;;;20.33;15.00;;;;;19.67;56.66;101178.00;5026466;28;45171;-62
2022/10/30 01:14:13;;;;;;;;;23.00;22.00;;;;;19.72;56.73;101186.13;5024463;28;45033;-61
2022/10/30 01:16:53;;;;;;;;;16.33;14.33;;;;;19.72;56.84;101199.66;5031850;28;45189;-61
2022/10/30 01:19:30;;;;;;;;;17.67;16.00;;;;;19.63;56.82;101187.94;5020442;28;45120;-61
2022/10/30 01:22:09;;;;;;;;;17.67;13.67;;;;;19.64;56.99;101189.72;5023287;28;45117;-61
2022/10/30 01:24:49;;;;;;;;;13.33;12.33;;;;;19.58;57.37;101195.16;5041747;28;45247;-61
2022/10/30 01:27:45;;;;;;;;;14.67;12.00;;;;;19.54;57.24;101193.41;5024243;28;46228;-61
2022/10/30 01:30:26;;;;;;;;;16.67;13.00;;;;;19.49;56.81;101190.69;5032196;28;45271;-61
2022/10/30 01:33:15;;;;;;;;;18.33;14.00;;;;;19.38;57.31;101186.22;5030351;28;44927;-62
2022/10/30 01:35:49;;;;;;;;;22.33;14.67;;;;;19.26;57.26;101190.75;5025069;28;45333;-62
2022/10/30 01:38:22;;;;;;;;;14.67;12.33;;;;;19.28;57.38;101198.88;5034947;28;45803;-61
2022/10/30 01:40:48;;;;;;;;;21.33;17.33;;;;;19.29;57.25;101193.47;5028936;28;45021;-62
2022/10/30 01:43:14;;;;;;;;;16.33;13.67;;;;;19.26;57.56;101188.06;5020555;28;44959;-61
2022/10/30 01:46:07;;;;;;;;;17.33;13.67;;;;;19.23;57.72;101189.88;5025984;28;45127;-61
2022/10/30 01:48:54;;;;;;;;;17.00;13.33;;;;;19.17;57.89;101190.75;5028182;28;45603;-61
2022/10/30 01:51:50;;;;;;;;;18.67;15.33;;;;;19.13;58.19;101186.28;5038304;28;45187;-61
2022/10/30 01:54:15;;;;;;;;;18.33;16.00;;;;;19.11;58.33;101194.41;5029933;28;45105;-63
2022/10/30 01:56:57;;;;;;;;;14.33;11.67;;;;;19.08;58.06;101179.97;5030125;28;45108;-63
2022/10/30 01:59:36;;;;;;;;;20.00;14.67;;;;;19.06;58.08;101182.69;5017967;28;45621;-63
2022/10/30 02:02:02;;;;;;;;;19.67;16.33;;;;;19.01;58.04;101170.06;5020369;28;45095;-62
2022/10/30 02:04:28;;;;;;;;;16.33;14.67;;;;;19.05;58.22;101166.44;5019008;28;45092;-62
2022/10/30 02:06:53;;;;;;;;;17.33;12.67;;;;;18.97;58.48;101158.31;5040198;28;45318;-62
2022/10/30 02:09:20;;;;;;;;;14.33;12.00;;;;;18.92;58.37;101144.81;5028420;28;45366;-61
2022/10/30 02:11:48;;;;;;;;;14.33;14.00;;;;;18.92;58.27;101146.59;5028659;28;44920;-62
2022/10/30 02:14:25;;;;;;;;;18.00;13.00;;;;;18.96;58.64;101157.41;5022705;28;45218;-62
2022/10/30 02:16:53;;;;;;;;;12.33;10.67;;;;;18.94;58.19;101152.91;5029667;28;45207;-63
2022/10/30 02:19:19;;;;;;;;;15.33;11.00;;;;;18.93;58.51;101157.41;5032422;28;45795;-62
2022/10/30 02:21:44;;;;;;;;;15.33;12.33;;;;;18.91;58.49;101159.22;5023971;28;45056;-60
2022/10/30 02:24:09;;;;;;;;;14.00;11.67;;;;;18.94;58.46;101159.22;5025703;28;47014;-62
2022/10/30 02:26:35;;;;;;;;;12.67;12.67;;;;;18.94;58.28;101159.22;5036035;28;44934;-60
2022/10/30 02:29:01;;;;;;;;;20.00;13.33;;;;;18.85;58.23;101140.28;5017231;28;45436;-61
2022/10/30 02:31:26;;;;;;;;;12.33;10.67;;;;;18.88;58.17;101148.41;5026888;28;45144;-62
2022/10/30 02:33:54;;;;;;;;;19.00;12.00;;;;;18.91;58.05;101144.81;5032765;28;45341;-62
2022/10/30 02:36:20;;;;;;;;;14.67;14.67;;;;;18.93;58.64;101145.69;5032656;28;45545;-61
2022/10/30 02:38:45;;;;;;;;;16.67;13.33;;;;;18.89;58.23;101139.38;5021833;28;46163;-62
2022/10/30 02:41:11;;;;;;;;;13.00;12.00;;;;;18.94;58.31;101151.13;5036423;28;45229;-62
2022/10/30 02:43:37;;;;;;;;;9.33;9.33;;;;;18.91;58.13;101148.41;5026499;28;45305;-62
2022/10/30 02:46:02;;;;;;;;;12.67;10.67;;;;;18.91;57.97;101152.94;5024375;28;45121;-61
2022/10/30 02:48:29;;;;;;;;;15.33;12.33;;;;;18.90;58.13;101146.59;5032144;28;45400;-62
2022/10/30 02:51:02;;;;;;;;;19.67;19.67;;;;;18.98;58.33;101153.81;5027026;28;45139;-63
2022/10/30 02:53:28;;;;;;;;;15.33;11.67;;;;;18.94;58.04;101148.41;5026857;28;45210;-62
2022/10/30 02:55:53;;;;;;;;;20.00;14.33;;;;;18.85;57.82;101128.56;5029475;28;45219;-62
2022/10/30 02:58:18;;;;;;;;;13.33;13.00;;;;;18.76;58.17;101118.63;5025032;28;45906;-61
2022/10/30 03:00:44;;;;;;;;;12.33;12.33;;;;;18.79;58.31;101132.13;5013809;28;45063;-62
2022/10/30 03:03:09;;;;;;;;;14.67;12.00;;;;;18.85;58.12;101144.81;5025040;28;48483;-63
2022/10/30 03:05:34;;;;;;;;;13.67;13.33;;;;;18.84;58.03;101135.78;5031307;28;46177;-61
2022/10/30 03:08:00;;;;;;;;;14.00;11.00;;;;;18.89;58.10;101139.38;5024821;28;45154;-62
2022/10/30 03:10:25;;;;;;;;;17.33;13.00;;;;;18.87;58.33;101143.00;5035469;28;45402;-62
2022/10/30 03:12:50;;;;;;;;;16.67;10.67;;;;;18.84;58.25;101140.28;5030218;28;45505;-61
2022/10/30 03:15:16;;;;;;;;;21.00;12.00;;;;;18.76;58.19;101129.44;5030301;28;45303;-61
2022/10/30 03:17:42;;;;;;;;;10.67;10.67;;;;;18.78;58.14;101136.66;5032591;28;45740;-62
2022/10/30 03:20:08;;;;;;;;;12.00;9.33;;;;;18.76;58.21;101129.44;5024192;28;45247;-61
2022/10/30 03:22:33;;;;;;;;;16.33;11.00;;;;;18.39;58.45;101076.25;5025035;28;44977;-61
2022/10/30 03:24:58;;;;;;;;;12.67;11.67;;;;;18.76;58.40;101126.75;5023019;28;45013;-63
2022/10/30 03:27:23;;;;;;;;;14.67;13.00;;;;;18.70;58.62;101121.34;5023279;28;65039;-63
2022/10/30 03:29:49;;;;;;;;;15.33;13.00;;;;;18.73;58.57;101126.75;5031782;28;45097;-63
2022/10/30 03:32:14;;;;;;;;;11.33;10.00;;;;;18.82;58.43;101128.53;5028385;28;45131;-61
2022/10/30 03:34:39;;;;;;;;;15.67;11.33;;;;;18.78;58.44;101122.22;5035241;28;46204;-62
2022/10/30 03:37:05;;;;;;;;;13.33;10.33;;;;;18.73;58.60;101105.09;5018245;28;48643;-62
2022/10/30 03:39:31;;;;;;;;;10.67;9.33;;;;;18.70;58.60;101108.69;5028081;28;45798;-62
2022/10/30 03:41:56;;;;;;;;;13.00;12.00;;;;;18.73;58.61;101102.38;5027817;28;45611;-63
2022/10/30 03:44:21;;;;;;;;;22.67;17.67;;;;;18.81;58.17;101113.19;5024643;28;45397;-63
2022/10/30 03:46:47;;;;;;;;;17.67;11.67;;;;;18.81;58.61;101111.41;5032322;28;46697;-62
2022/10/30 03:49:12;;;;;;;;;13.33;12.33;;;;;18.70;58.20;101096.97;5023728;28;45398;-63
2022/10/30 03:51:37;;;;;;;;;13.33;11.67;;;;;18.75;58.50;101109.59;5025867;28;45116;-62
2022/10/30 03:54:03;;;;;;;;;14.33;12.67;;;;;18.74;58.27;101104.16;5020535;28;45506;-61
2022/10/30 03:56:28;;;;;;;;;12.00;11.67;;;;;18.73;58.24;101105.97;5025168;28;45402;-62
2022/10/30 03:58:54;;;;;;;;;12.33;12.33;;;;;18.74;58.18;101102.38;5029850;28;45139;-61
2022/10/30 04:01:20;;;;;;;;;16.67;13.33;;;;;18.72;58.16;101097.88;5030413;28;44910;-62
2022/10/30 04:03:45;;;;;;;;;14.00;9.33;;;;;18.65;58.64;101093.38;5022422;28;45233;-67
2022/10/30 04:06:10;;;;;;;;;14.33;11.00;;;;;18.67;58.56;101100.56;5028146;28;45584;-62
2022/10/30 04:08:36;;;;;;;;;18.00;13.33;;;;;18.68;58.64;101104.19;5033164;28;45012;-61
2022/10/30 04:11:01;;;;;;;;;15.33;11.33;;;;;18.65;58.54;101104.19;5035642;28;45234;-62
2022/10/30 04:13:27;;;;;;;;;15.00;11.67;;;;;18.58;58.56;101097.91;5027801;28;45149;-63
2022/10/30 04:15:52;;;;;;;;;13.00;11.33;;;;;18.57;58.71;101104.19;5030312;28;45635;-64
2022/10/30 04:18:18;;;;;;;;;17.33;12.00;;;;;18.54;58.73;101112.31;5017981;28;45071;-62
2022/10/30 04:20:44;;;;;;;;;13.67;10.67;;;;;18.51;58.89;101113.25;5028107;28;45163;-62
2022/10/30 04:23:14;;;;;;;;;11.00;11.00;;;;;18.46;59.34;101123.13;5024634;28;45258;-61
2022/10/30 04:25:39;;;;;;;;;10.00;7.00;;;;;18.32;59.34;101087.09;5022148;28;46382;-61
2022/10/30 04:28:05;;;;;;;;;15.67;11.67;;;;;18.27;59.22;101081.66;5020554;28;45094;-62
2022/10/30 04:30:35;;;;;;;;;16.67;12.00;;;;;18.34;59.35;101082.56;5021756;28;45057;-63
2022/10/30 04:33:12;;;;;;;;;16.00;10.33;;;;;18.40;59.08;101094.28;5034760;28;45160;-62
2022/10/30 04:35:39;;;;;;;;;21.00;10.33;;;;;18.42;59.25;101078.06;5035239;28;45288;-62
2022/10/30 04:38:07;;;;;;;;;15.67;10.33;;;;;18.37;59.12;101083.47;5037403;28;45126;-62
2022/10/30 04:40:35;;;;;;;;;10.00;7.67;;;;;18.37;59.25;101093.38;5040633;28;45080;-62
2022/10/30 04:43:01;;;;;;;;;16.67;11.67;;;;;18.35;59.44;101081.69;5029176;28;45030;-60
2022/10/30 04:45:27;;;;;;;;;11.33;10.00;;;;;18.31;59.33;101071.75;5037849;28;45283;-62
2022/10/30 04:47:59;;;;;;;;;17.67;14.33;;;;;18.24;59.46;101087.97;5033465;28;45227;-61
2022/10/30 04:50:25;;;;;;;;;15.67;10.00;;;;;18.22;59.61;101097.88;5027356;28;45220;-63
2022/10/30 04:52:58;;;;;;;;;19.67;11.67;;;;;18.15;59.53;101085.28;5034937;28;45044;-61
2022/10/30 04:55:23;;;;;;;;;11.67;10.67;;;;;18.13;60.00;101087.09;5031897;28;46020;-62
2022/10/30 04:57:48;;;;;;;;;13.00;11.00;;;;;18.05;59.99;101076.25;5030875;28;45146;-63
2022/10/30 05:00:14;;;;;;;;;11.33;11.33;;;;;18.17;60.00;101105.09;5028056;28;45330;-61
2022/10/30 05:02:39;;;;;;;;;11.33;11.33;;;;;18.08;60.03;101096.97;5039684;28;45072;-66
2022/10/30 05:05:05;;;;;;;;;11.33;10.67;;;;;18.00;60.13;101090.66;5031422;28;45076;-62
2022/10/30 05:07:31;;;;;;;;;14.00;11.00;;;;;17.92;60.52;101085.25;5024144;28;46259;-62
2022/10/30 05:09:57;;;;;;;;;9.33;7.67;;;;;17.99;60.62;101086.16;5028861;28;45045;-61
2022/10/30 05:12:22;;;;;;;;;10.67;9.33;;;;;17.99;60.41;101086.16;5034336;28;45041;-61
2022/10/30 05:14:47;;;;;;;;;12.67;9.33;;;;;18.01;60.22;101100.56;5027203;28;46041;-62
2022/10/30 05:17:13;;;;;;;;;13.33;11.67;;;;;17.85;60.66;101087.00;5040849;28;45371;-62
2022/10/30 05:19:38;;;;;;;;;16.00;12.33;;;;;17.85;60.48;101072.56;5024138;28;45348;-62
2022/10/30 05:22:03;;;;;;;;;10.67;8.67;;;;;17.96;60.43;101083.44;5026790;28;45053;-61
2022/10/30 05:24:29;;;;;;;;;9.67;7.33;;;;;17.83;60.75;101064.47;5024602;28;45279;-62
2022/10/30 05:26:54;;;;;;;;;9.67;9.67;;;;;17.99;60.54;101094.28;5020541;28;44970;-61
2022/10/30 05:29:19;;;;;;;;;12.33;10.00;;;;;17.90;60.45;101075.31;5023907;28;45133;-61
2022/10/30 05:31:45;;;;;;;;;15.33;10.67;;;;;17.74;60.88;101056.34;5026023;28;45048;-62
2022/10/30 05:34:10;;;;;;;;;9.33;9.33;;;;;17.82;61.20;101070.78;5041557;28;45883;-62
2022/10/30 05:36:35;;;;;;;;;17.67;13.00;;;;;17.81;60.84;101052.75;5028593;28;52975;-62
2022/10/30 05:39:01;;;;;;;;;13.00;10.00;;;;;17.84;60.87;101065.38;5034172;28;45119;-63
2022/10/30 05:41:27;;;;;;;;;14.00;11.00;;;;;17.82;61.26;101065.38;5029815;28;45286;-63
2022/10/30 05:43:53;;;;;;;;;11.67;11.67;;;;;17.82;61.12;101069.91;5025907;28;45640;-62
2022/10/30 05:46:18;;;;;;;;;12.33;10.00;;;;;17.74;61.36;101064.47;5030135;28;45214;-62
2022/10/30 05:48:43;;;;;;;;;15.00;12.00;;;;;17.78;61.31;101082.47;5042500;28;45337;-63
2022/10/30 05:51:09;;;;;;;;;13.67;11.00;;;;;17.30;61.22;101001.31;5023773;28;45153;-62
2022/10/30 05:53:34;;;;;;;;;15.67;11.67;;;;;17.72;61.75;101085.19;5039188;28;51123;-61
2022/10/30 05:55:59;;;;;;;;;8.67;8.33;;;;;17.73;61.37;101084.28;5024659;28;50259;-63
2022/10/30 05:58:25;;;;;;;;;12.67;9.33;;;;;17.66;62.10;101077.06;5023987;28;51037;-62
2022/10/30 06:00:51;;;;;;;;;18.33;9.33;;;;;17.75;61.77;101076.16;5032090;28;45316;-64
2022/10/30 06:03:16;;;;;;;;;15.00;11.00;;;;;17.77;61.68;101077.06;5035717;28;47576;-61
2022/10/30 06:05:44;;;;;;;;;10.33;8.67;;;;;17.69;61.66;101058.16;5027234;28;49693;-62
2022/10/30 06:08:10;;;;;;;;;11.00;9.67;;;;;17.79;61.30;101075.28;5021683;28;44911;-61
2022/10/30 06:10:36;;;;;;;;;12.67;8.67;;;;;17.83;61.34;101077.97;5041306;28;45133;-62
2022/10/30 06:13:03;;;;;;;;;11.00;11.00;;;;;17.79;61.74;101065.38;5037024;28;45228;-61
2022/10/30 06:15:30;;;;;;;;;16.67;11.00;;;;;17.71;61.61;101066.25;5033770;28;45017;-61
2022/10/30 06:17:55;;;;;;;;;14.67;11.00;;;;;17.65;61.88;101073.47;5019038;28;45171;-63
2022/10/30 06:20:23;;;;;;;;;18.33;13.67;;;;;17.69;61.73;101077.97;5031817;28;45128;-61
2022/10/30 06:23:00;;;;;;;;;14.67;10.67;;;;;17.53;62.01;101067.13;5032543;28;45372;-62
2022/10/30 06:25:27;;;;;;;;;11.00;9.00;;;;;17.57;62.32;101079.72;5030122;28;45271;-62
2022/10/30 06:27:52;;;;;;;;;11.00;10.33;;;;;17.65;61.98;101089.69;5030435;28;45220;-62
2022/10/30 06:30:18;;;;;;;;;14.00;11.00;;;;;17.62;61.97;101086.97;5025650;28;45227;-62
2022/10/30 06:32:43;;;;;;;;;12.33;6.00;;;;;17.49;62.24;101067.09;5021860;28;47017;-61
2022/10/30 06:35:09;;;;;;;;;14.00;11.33;;;;;17.47;62.17;101078.78;5041325;28;45017;-62
2022/10/30 06:37:34;;;;;;;;;11.33;10.67;;;;;17.51;61.86;101077.91;5038164;28;45178;-63
2022/10/30 06:40:00;;;;;;;;;12.33;10.33;;;;;17.60;62.11;101104.06;5018734;28;45092;-61
2022/10/30 06:42:25;;;;;;;;;14.00;10.33;;;;;17.55;62.28;101090.53;5035064;28;46060;-63
2022/10/30 06:44:51;;;;;;;;;15.67;12.00;;;;;17.54;62.11;101091.44;5035248;28;45156;-60
2022/10/30 06:47:16;;;;;;;;;10.00;7.67;;;;;17.64;61.91;101100.47;5027508;28;45152;-62
2022/10/30 06:49:42;;;;;;;;;16.33;7.00;;;;;17.59;62.51;101095.06;5033111;28;45150;-62
2022/10/30 06:52:07;;;;;;;;;13.00;10.33;;;;;17.61;62.14;101098.66;5023941;28;45106;-66
2022/10/30 06:54:33;;;;;;;;;11.33;10.33;;;;;17.64;62.43;101108.59;5024244;28;45229;-62
2022/10/30 06:56:58;;;;;;;;;22.33;9.67;;;;;17.62;62.35;101104.94;5026045;28;44991;-67
2022/10/30 06:59:23;;;;;;;;;10.00;10.00;;;;;17.66;62.38;101104.97;5025696;28;45034;-62
2022/10/30 07:01:49;;;;;;;;;15.00;12.00;;;;;17.52;62.28;101086.91;5020482;28;46093;-64
2022/10/30 07:04:15;;;;;;;;;24.33;15.00;;;;;17.46;62.40;101080.59;5027301;28;45114;-62
2022/10/30 07:06:40;;;;;;;;;14.00;11.33;;;;;17.44;62.28;101092.28;5027097;28;45058;-61
2022/10/30 07:09:05;;;;;;;;;19.00;10.00;;;;;17.48;62.80;101108.50;5033298;28;45416;-61
2022/10/30 07:11:31;;;;;;;;;12.00;11.00;;;;;17.41;62.99;101089.59;5031257;28;45955;-62
2022/10/30 07:13:56;;;;;;;;;14.67;9.67;;;;;17.43;62.77;101088.69;5036966;28;45138;-61
2022/10/30 07:16:21;;;;;;;;;11.67;8.33;;;;;17.33;62.66;101069.75;5024211;28;45173;-64
2022/10/30 07:18:47;;;;;;;;;16.00;15.33;;;;;17.29;62.98;101067.03;5038528;28;45102;-63
2022/10/30 07:21:12;;;;;;;;;11.67;11.33;;;;;17.42;63.15;101094.09;5026142;28;50375;-62
2022/10/30 07:23:37;;;;;;;;;14.67;10.67;;;;;17.44;63.25;101082.41;5030512;28;46169;-61
2022/10/30 07:26:03;;;;;;;;;15.67;9.67;;;;;17.40;62.70;101072.47;5030153;28;45265;-62
2022/10/30 07:28:30;;;;;;;;;18.00;11.00;;;;;17.48;62.58;101094.13;5024343;28;45038;-61
2022/10/30 07:30:57;;;;;;;;;16.33;13.00;;;;;17.41;63.12;101076.09;5018593;28;45967;-62
2022/10/30 07:33:22;;;;;;;;;12.33;9.67;;;;;17.47;63.01;101092.28;5021975;28;44966;-62
2022/10/30 07:35:47;;;;;;;;;15.33;10.67;;;;;17.44;62.74;101086.88;5031427;28;45071;-61
2022/10/30 07:38:13;;;;;;;;;10.00;10.00;;;;;17.39;62.81;101078.78;5023344;28;48529;-61
2022/10/30 07:40:38;;;;;;;;;9.00;7.33;;;;;17.42;62.28;101103.09;5028372;28;45739;-63
2022/10/30 07:43:04;;;;;;;;;16.33;15.67;;;;;17.45;62.81;101105.78;5027412;28;45172;-64
2022/10/30 07:45:30;;;;;;;;;30.75;20.00;;;;;17.47;63.00;101106.72;5025490;28;45080;-61
2022/10/30 07:47:56;;;;;;;;;14.33;13.67;;;;;17.47;62.46;101090.53;5025195;28;45081;-62
2022/10/30 07:50:21;;;;;;;;;16.33;10.67;;;;;17.43;62.42;101077.88;5034913;28;45502;-61
2022/10/30 07:52:47;;;;;;;;;12.67;10.67;;;;;17.47;62.60;101089.59;5026438;28;45059;-63
2022/10/30 07:55:13;;;;;;;;;16.00;13.00;;;;;17.54;61.94;101096.84;5026997;28;45144;-62
2022/10/30 07:57:40;;;;;;;;;14.67;12.33;;;;;17.45;61.82;101070.69;5023885;28;45298;-62
2022/10/30 08:00:09;;;;;;;;;11.33;10.00;;;;;17.62;61.79;101097.78;5020118;28;45417;-62
2022/10/30 08:02:35;;;;;;;;;11.33;8.00;;;;;17.67;61.54;101105.91;5039459;28;45269;-61
2022/10/30 08:05:01;;;;;;;;;14.67;11.33;;;;;17.73;61.63;101107.69;5028768;28;45156;-61
2022/10/30 08:07:31;;;;;;;;;15.67;12.67;;;;;17.73;61.42;101103.19;5026566;28;45135;-65
2022/10/30 08:09:57;;;;;;;;;10.67;9.33;;;;;17.75;61.46;101105.91;5025835;28;45844;-62
2022/10/30 08:12:22;;;;;;;;;10.00;10.00;;;;;17.81;61.04;101119.44;5032413;28;45150;-61
2022/10/30 08:14:48;;;;;;;;;10.67;8.67;;;;;17.84;61.18;101119.44;5022139;28;45112;-62
2022/10/30 08:17:13;;;;;;;;;10.33;9.67;;;;;17.93;60.76;101124.88;5028998;28;45227;-63
2022/10/30 08:19:39;;;;;;;;;11.00;9.67;;;;;17.90;60.61;101127.63;5038667;28;45902;-64
2022/10/30 08:22:04;;;;;;;;;12.33;11.00;;;;;17.95;59.97;101131.22;5027769;28;44948;-63
2022/10/30 08:24:29;;;;;;;;;14.00;9.67;;;;;17.86;59.72;101137.44;5026013;28;44926;-61
2022/10/30 08:26:55;;;;;;;;;11.00;9.00;;;;;17.95;59.75;101147.44;5019416;28;45128;-68
2022/10/30 08:29:20;;;;;;;;;11.67;11.00;;;;;17.96;59.53;101142.94;5022365;28;46102;-65
2022/10/30 08:31:49;;;;;;;;;11.00;10.00;;;;;18.08;59.40;101155.56;5025999;28;45091;-65
2022/10/30 08:34:14;;;;;;;;;19.00;13.33;;;;;18.14;59.20;101163.69;5041956;28;45197;-67
2022/10/30 08:36:40;;;;;;;;;15.00;11.33;;;;;18.09;58.95;101158.28;5024555;28;45185;-65
2022/10/30 08:39:05;;;;;;;;;13.67;11.33;;;;;18.13;59.13;101161.88;5028433;28;48600;-67
2022/10/30 08:41:30;;;;;;;;;14.33;8.33;;;;;18.23;59.08;101169.09;5025979;28;52578;-66
2022/10/30 08:43:56;;;;;;;;;10.67;10.00;;;;;18.21;58.46;101147.50;5031618;28;45558;-67
2022/10/30 08:46:21;;;;;;;;;16.00;10.67;;;;;18.16;58.57;101113.22;5042933;28;45186;-67
2022/10/30 08:48:46;;;;;;;;;15.67;10.00;;;;;18.31;58.22;101137.56;5031090;28;45839;-66
2022/10/30 08:51:12;;;;;;;;;16.67;10.33;;;;;18.36;58.14;101161.91;5028121;28;48194;-67
2022/10/30 08:53:37;;;;;;;;;14.00;10.33;;;;;18.40;57.71;101167.34;5025854;28;45100;-65
2022/10/30 08:56:04;;;;;;;;;10.33;10.00;;;;;18.34;57.69;101150.19;5040428;28;44943;-67
2022/10/30 08:58:29;;;;;;;;;13.00;11.33;;;;;18.38;57.45;101150.19;5026055;28;45413;-67
2022/10/30 09:00:55;;;;;;;;;11.33;9.67;;;;;18.39;57.35;101142.97;5029290;28;45330;-65
2022/10/30 09:03:20;;;;;;;;;14.00;10.33;;;;;18.42;57.22;101130.34;5028439;28;45379;-64
2022/10/30 09:05:45;;;;;;;;;11.67;10.33;;;;;18.53;57.09;101129.47;5021290;28;45076;-65
2022/10/30 09:08:11;;;;;;;;;16.67;13.00;;;;;18.52;57.05;101141.19;5033678;28;46879;-65
2022/10/30 09:10:36;;;;;;;;;12.33;10.33;;;;;18.60;56.69;101147.50;5026086;28;44952;-64
2022/10/30 09:13:06;;;;;;;;;15.00;9.67;;;;;18.58;56.61;101152.91;5020290;28;45109;-66
2022/10/30 09:15:31;;;;;;;;;12.67;10.33;;;;;18.59;56.61;101138.50;5027771;28;46421;-65
2022/10/30 09:17:59;;;;;;;;;15.67;12.67;;;;;18.48;56.96;101143.00;5026892;28;46401;-65
2022/10/30 09:20:25;;;;;;;;;14.33;11.33;;;;;18.51;57.13;101152.91;5030539;28;45379;-66
2022/10/30 09:22:51;;;;;;;;;17.33;13.33;;;;;18.51;56.96;101159.22;5022405;28;45046;-65
2022/10/30 09:25:16;;;;;;;;;13.33;12.67;;;;;18.61;56.74;101170.97;5023481;28;45304;-65
2022/10/30 09:27:42;;;;;;;;;13.67;11.33;;;;;18.59;56.63;101167.34;5021742;28;45597;-65
2022/10/30 09:30:08;;;;;;;;;17.00;13.00;;;;;18.52;56.81;101157.41;5030171;28;44976;-64
2022/10/30 09:32:33;;;;;;;;;14.33;10.67;;;;;18.67;56.37;101181.75;5037381;28;45139;-64
2022/10/30 09:34:59;;;;;;;;;10.67;8.67;;;;;18.69;56.32;101179.06;5035242;28;45116;-65
2022/10/30 09:37:25;;;;;;;;;13.33;9.67;;;;;18.69;56.22;101166.47;5025219;28;47381;-65
2022/10/30 09:39:50;;;;;;;;;12.00;12.00;;;;;18.80;56.23;101174.56;5032303;28;45188;-64
2022/10/30 09:42:22;;;;;;;;;12.67;9.00;;;;;18.90;56.36;101173.66;5022756;28;45312;-65
2022/10/30 09:44:50;;;;;;;;;14.67;10.67;;;;;18.98;56.12;101170.06;5025014;28;45092;-64
2022/10/30 09:47:26;;;;;;;;;11.33;10.00;;;;;18.93;55.27;101149.28;5026063;28;45247;-65
2022/10/30 09:49:57;;;;;;;;;14.67;11.00;;;;;19.13;54.84;101175.44;5027840;28;45158;-65
2022/10/30 09:52:44;;;;;;;;;9.33;8.67;;;;;19.24;54.40;101170.91;5024787;28;44995;-66
2022/10/30 09:55:15;;;;;;;;;8.33;8.33;;;;;19.35;54.24;101184.41;5020601;28;45192;-65
2022/10/30 09:57:52;;;;;;;;;11.67;10.00;;;;;19.46;53.95;101187.09;5029740;28;46835;-65
2022/10/30 10:00:21;;;;;;;;;7.67;7.33;;;;;19.53;53.81;101175.31;5024698;28;45224;-65
2022/10/30 10:03:08;;;;;;;;;11.00;8.00;;;;;19.62;53.11;101177.13;5019116;28;46178;-63
2022/10/30 10:05:52;;;;;;;;;15.00;10.33;;;;;19.65;53.31;101163.50;5014441;28;45133;-65
2022/10/30 10:08:40;;;;;;;;;8.67;6.33;;;;;19.80;52.55;101177.06;5019390;28;45933;-64
2022/10/30 10:11:30;;;;;;;;;8.67;6.67;;;;;19.83;51.52;101168.91;5024796;28;44955;-65
2022/10/30 10:13:58;;;;;;;;;12.33;9.33;;;;;19.95;51.88;101186.03;5027450;28;45173;-66
2022/10/30 10:16:28;;;;;;;;;10.00;9.00;;;;;19.98;52.05;101192.34;5029288;28;45290;-66
2022/10/30 10:19:13;;;;;;;;;10.00;7.67;;;;;19.99;51.61;101190.50;5028005;28;46144;-65
2022/10/30 10:21:45;;;;;;;;;9.00;7.00;;;;;19.91;51.26;101176.97;5022501;28;45314;-65
2022/10/30 10:24:32;;;;;;;;;15.00;8.00;;;;;19.94;51.71;101170.66;5017376;28;45289;-64
2022/10/30 10:27:26;;;;;;;;;15.00;6.33;;;;;19.99;51.48;101177.84;5020026;28;45306;-64
2022/10/30 10:30:03;;;;;;;;;10.33;6.33;;;;;19.97;51.87;101170.66;5029863;28;45148;-66
2022/10/30 10:32:42;;;;;;;;;7.67;6.33;;;;;19.98;51.71;101162.50;5016852;28;45017;-65
2022/10/30 10:35:26;;;;;;;;;10.67;7.33;;;;;19.98;51.63;101173.34;5027954;28;45064;-65
2022/10/30 10:38:01;;;;;;;;;11.33;9.33;;;;;20.00;51.72;101173.34;5031688;28;45053;-64
2022/10/30 10:40:50;;;;;;;;;9.00;9.00;;;;;20.03;51.71;101166.09;5023092;28;45312;-64
2022/10/30 10:43:21;;;;;;;;;11.00;8.67;;;;;20.09;51.90;101167.84;5025902;28;45338;-67
2022/10/30 10:46:22;;;;;;;;;13.00;8.00;;;;;20.07;51.81;101178.69;5031727;28;45198;-65
2022/10/30 10:49:32;;;;;;;;;10.00;9.00;;;;;20.14;51.69;101197.66;5031538;28;45121;-65
2022/10/30 10:52:02;;;;;;;;;19.67;18.00;;;;;20.17;51.86;101212.09;5030252;28;45399;-66
2022/10/30 10:54:41;;;;;;;;;11.33;11.33;;;;;20.20;51.47;101227.47;5022025;28;45049;-65
2022/10/30 10:57:11;;;;;;;;;10.67;7.33;;;;;20.27;51.87;101237.38;5028535;28;45078;-65
2022/10/30 10:59:51;;;;;;;;;14.67;9.33;;;;;20.31;51.38;101224.69;5021020;28;45366;-65
2022/10/30 11:02:32;;;;;;;;;10.00;9.00;;;;;20.34;51.71;101236.44;5027627;28;45857;-65
2022/10/30 11:05:06;;;;;;;;;11.33;9.33;;;;;20.32;51.70;101221.06;5016684;28;45425;-65
2022/10/30 11:07:38;;;;;;;;;10.00;9.33;;;;;20.29;52.04;101216.56;5024256;28;45019;-65
2022/10/30 11:10:11;;;;;;;;;9.33;7.00;;;;;20.36;51.95;101222.84;5017700;28;45011;-66
2022/10/30 11:12:37;;;;;;;;;6.00;6.00;;;;;20.35;52.23;101229.19;5054039;28;46257;-66
2022/10/30 11:15:28;;;;;;;;;10.33;8.67;;;;;20.36;52.59;101239.13;5024913;28;45022;-66
2022/10/30 11:18:03;;;;;;;;;12.33;7.67;;;;;20.41;52.48;101242.72;5035486;28;44947;-65